SBSL/SLZ METAR and TAF weather

Enter ICAO airport designator
Station Type Date Time Source
SBSL METAR 2020/01/22 18:00 UTC NOAA

SBSL 221800Z 01012KT 9999 SCT025 30/25 Q1008


Station Type Date Time Source
SBSL Decoded METAR 2020/01/22 18:00 UTC NOAA

Sao Luiz Aeroporto , Brazil (SBSL) 02-36S 044-14W 53M
Jan 22, 2020 - 01:00 PM EST / 2020.01.22 1800 UTC
Wind: from the N (010 degrees) at 14 MPH (12 KT):0
Visibility: greater than 7 mile(s):0
Sky conditions: partly cloudy
Temperature: 86 F (30 C)
Heat index: 96.8 F (36.0 C):1
Dew Point: 77 F (25 C)
Relative Humidity: 74%
Pressure (altimeter): 29.77 in. Hg (1008 hPa)
ob: SBSL 221800Z 01012KT 9999 SCT025 30/25 Q1008
cycle: 18

Station Type Date Time Source
SBSL TAF 2020/01/22 18:24 UTC NOAA

TAF SBSL 221615Z 2218/2318 02010KT 7000 SHRA BKN020 FEW025TCU TX29/2218Z TN25/2309Z
BECMG 2219/2222 05007KT 8000 NSW SCT017
BECMG 2311/2313 6000 SHRA BKN015 FEW023TCU
BECMG 2315/2317 01010KT 7000 NSW
RMK PHC

Example: see airport list